sensor_id;sensor_type;location;lat;lon;timestamp;temperature;humidity
23156;DHT22;11746;50.876;4.246;2022-08-01T00:02:16;20.90;99.90
23156;DHT22;11746;50.876;4.246;2022-08-01T00:04:42;20.90;99.90
23156;DHT22;11746;50.876;4.246;2022-08-01T00:07:10;21.00;99.90
23156;DHT22;11746;50.876;4.246;2022-08-01T00:09:36;20.90;99.90
23156;DHT22;11746;50.876;4.246;2022-08-01T00:12:04;20.90;99.90
23156;DHT22;11746;50.876;4.246;2022-08-01T00:14:32;20.90;99.90
23156;DHT22;11746;50.876;4.246;2022-08-01T00:17:01;20.80;99.90
23156;DHT22;11746;50.876;4.246;2022-08-01T00:19:29;20.70;99.90
23156;DHT22;11746;50.876;4.246;2022-08-01T00:21:55;20.70;99.90
23156;DHT22;11746;50.876;4.246;2022-08-01T00:24:22;20.70;99.90
23156;DHT22;11746;50.876;4.246;2022-08-01T00:26:51;20.60;99.90
23156;DHT22;11746;50.876;4.246;2022-08-01T00:29:19;20.70;99.90
23156;DHT22;11746;50.876;4.246;2022-08-01T00:31:45;20.70;99.90
23156;DHT22;11746;50.876;4.246;2022-08-01T00:34:11;20.70;99.90
23156;DHT22;11746;50.876;4.246;2022-08-01T00:36:37;20.70;99.90
23156;DHT22;11746;50.876;4.246;2022-08-01T00:39:05;20.80;99.90
23156;DHT22;11746;50.876;4.246;2022-08-01T00:41:31;20.80;99.90
23156;DHT22;11746;50.876;4.246;2022-08-01T00:43:57;20.90;99.90
23156;DHT22;11746;50.876;4.246;2022-08-01T00:46:23;20.80;99.90
23156;DHT22;11746;50.876;4.246;2022-08-01T00:48:51;20.70;99.90
23156;DHT22;11746;50.876;4.246;2022-08-01T00:51:17;20.70;99.90
23156;DHT22;11746;50.876;4.246;2022-08-01T00:53:45;20.60;99.90
23156;DHT22;11746;50.876;4.246;2022-08-01T00:56:14;20.40;99.90
23156;DHT22;11746;50.876;4.246;2022-08-01T00:58:40;20.40;99.90
23156;DHT22;11746;50.876;4.246;2022-08-01T01:01:06;20.40;99.90
23156;DHT22;11746;50.876;4.246;2022-08-01T01:03:34;20.40;99.90
23156;DHT22;11746;50.876;4.246;2022-08-01T01:06:27;20.30;99.90
23156;DHT22;11746;50.876;4.246;2022-08-01T01:14:45;20.30;99.90
23156;DHT22;11746;50.876;4.246;2022-08-01T01:17:20;20.40;99.90
23156;DHT22;11746;50.876;4.246;2022-08-01T01:19:48;20.20;99.90
23156;DHT22;11746;50.876;4.246;2022-08-01T01:28:27;20.10;99.90
23156;DHT22;11746;50.876;4.246;2022-08-01T01:30:58;20.10;99.90
23156;DHT22;11746;50.876;4.246;2022-08-01T01:33:27;20.10;99.90
23156;DHT22;11746;50.876;4.246;2022-08-01T01:36:04;20.10;99.90
23156;DHT22;11746;50.876;4.246;2022-08-01T01:38:36;20.00;99.90
23156;DHT22;11746;50.876;4.246;2022-08-01T01:41:03;20.00;99.90
23156;DHT22;11746;50.876;4.246;2022-08-01T01:43:32;20.00;99.90
23156;DHT22;11746;50.876;4.246;2022-08-01T01:46:01;19.90;99.90
23156;DHT22;11746;50.876;4.246;2022-08-01T01:48:29;19.90;99.90
23156;DHT22;11746;50.876;4.246;2022-08-01T01:50:54;20.00;99.90
23156;DHT22;11746;50.876;4.246;2022-08-01T01:53:23;20.00;99.90
23156;DHT22;11746;50.876;4.246;2022-08-01T01:55:52;20.20;99.90
23156;DHT22;11746;50.876;4.246;2022-08-01T01:58:21;20.20;99.90
23156;DHT22;11746;50.876;4.246;2022-08-01T02:00:50;20.20;99.90
23156;DHT22;11746;50.876;4.246;2022-08-01T02:03:19;20.20;99.90
23156;DHT22;11746;50.876;4.246;2022-08-01T02:05:46;20.20;99.90
23156;DHT22;11746;50.876;4.246;2022-08-01T02:08:15;20.30;99.90
23156;DHT22;11746;50.876;4.246;2022-08-01T02:10:45;20.30;99.90
23156;DHT22;11746;50.876;4.246;2022-08-01T02:13:36;20.20;99.90
23156;DHT22;11746;50.876;4.246;2022-08-01T02:16:04;20.10;99.90
23156;DHT22;11746;50.876;4.246;2022-08-01T02:18:35;20.20;99.90
23156;DHT22;11746;50.876;4.246;2022-08-01T02:21:03;20.20;99.90
23156;DHT22;11746;50.876;4.246;2022-08-01T02:23:36;20.20;99.90
23156;DHT22;11746;50.876;4.246;2022-08-01T02:26:08;20.20;99.90
23156;DHT22;11746;50.876;4.246;2022-08-01T02:28:50;20.10;99.90
23156;DHT22;11746;50.876;4.246;2022-08-01T02:31:21;20.20;99.90
23156;DHT22;11746;50.876;4.246;2022-08-01T02:33:57;20.20;99.90
23156;DHT22;11746;50.876;4.246;2022-08-01T02:36:28;20.20;99.90
23156;DHT22;11746;50.876;4.246;2022-08-01T02:38:57;20.30;99.90
23156;DHT22;11746;50.876;4.246;2022-08-01T02:41:27;20.30;99.90
23156;DHT22;11746;50.876;4.246;2022-08-01T02:43:59;20.30;99.90
23156;DHT22;11746;50.876;4.246;2022-08-01T02:46:33;20.20;99.90
23156;DHT22;11746;50.876;4.246;2022-08-01T02:49:03;20.20;99.90
23156;DHT22;11746;50.876;4.246;2022-08-01T02:51:33;20.00;99.90
23156;DHT22;11746;50.876;4.246;2022-08-01T02:54:02;20.00;99.90
23156;DHT22;11746;50.876;4.246;2022-08-01T02:56:29;20.00;99.90
23156;DHT22;11746;50.876;4.246;2022-08-01T02:59:08;20.20;99.90
23156;DHT22;11746;50.876;4.246;2022-08-01T03:01:36;20.20;99.90
23156;DHT22;11746;50.876;4.246;2022-08-01T03:04:04;20.30;99.90
23156;DHT22;11746;50.876;4.246;2022-08-01T03:06:31;20.30;99.90
23156;DHT22;11746;50.876;4.246;2022-08-01T03:08:58;20.30;99.90
23156;DHT22;11746;50.876;4.246;2022-08-01T03:11:31;20.10;99.90
23156;DHT22;11746;50.876;4.246;2022-08-01T03:14:02;20.10;99.90
23156;DHT22;11746;50.876;4.246;2022-08-01T03:16:29;19.90;99.90
23156;DHT22;11746;50.876;4.246;2022-08-01T03:18:57;19.90;99.90
23156;DHT22;11746;50.876;4.246;2022-08-01T03:21:27;19.90;99.90
23156;DHT22;11746;50.876;4.246;2022-08-01T03:23:58;19.90;99.90
23156;DHT22;11746;50.876;4.246;2022-08-01T03:26:27;19.90;99.90
23156;DHT22;11746;50.876;4.246;2022-08-01T03:28:57;20.00;99.90
23156;DHT22;11746;50.876;4.246;2022-08-01T03:31:25;19.80;99.90
23156;DHT22;11746;50.876;4.246;2022-08-01T03:33:51;19.90;99.90
23156;DHT22;11746;50.876;4.246;2022-08-01T03:36:21;19.90;99.90
23156;DHT22;11746;50.876;4.246;2022-08-01T03:38:50;19.90;99.90
23156;DHT22;11746;50.876;4.246;2022-08-01T03:41:20;20.00;99.90
23156;DHT22;11746;50.876;4.246;2022-08-01T03:43:52;20.00;99.90
23156;DHT22;11746;50.876;4.246;2022-08-01T03:46:47;20.00;99.90
23156;DHT22;11746;50.876;4.246;2022-08-01T03:49:33;20.10;99.90
23156;DHT22;11746;50.876;4.246;2022-08-01T03:52:05;20.10;99.90
23156;DHT22;11746;50.876;4.246;2022-08-01T03:54:43;20.10;99.90
23156;DHT22;11746;50.876;4.246;2022-08-01T03:57:11;20.00;99.90
23156;DHT22;11746;50.876;4.246;2022-08-01T03:59:40;20.20;99.90
23156;DHT22;11746;50.876;4.246;2022-08-01T04:02:07;20.20;99.90
23156;DHT22;11746;50.876;4.246;2022-08-01T04:04:34;20.30;99.90
23156;DHT22;11746;50.876;4.246;2022-08-01T04:07:00;20.20;99.90
23156;DHT22;11746;50.876;4.246;2022-08-01T04:09:34;20.00;99.90
23156;DHT22;11746;50.876;4.246;2022-08-01T04:12:00;19.80;99.90
23156;DHT22;11746;50.876;4.246;2022-08-01T04:14:27;19.70;99.90
23156;DHT22;11746;50.876;4.246;2022-08-01T04:16:54;19.70;99.90
23156;DHT22;11746;50.876;4.246;2022-08-01T04:19:19;19.70;99.90
23156;DHT22;11746;50.876;4.246;2022-08-01T04:21:45;19.70;99.90
23156;DHT22;11746;50.876;4.246;2022-08-01T04:24:14;19.70;99.90
23156;DHT22;11746;50.876;4.246;2022-08-01T04:26:47;19.80;99.90
23156;DHT22;11746;50.876;4.246;2022-08-01T04:29:16;19.70;99.90
23156;DHT22;11746;50.876;4.246;2022-08-01T04:31:45;19.70;99.90
23156;DHT22;11746;50.876;4.246;2022-08-01T04:34:20;19.70;99.90
23156;DHT22;11746;50.876;4.246;2022-08-01T04:36:48;19.70;99.90
23156;DHT22;11746;50.876;4.246;2022-08-01T04:39:17;19.70;99.90
23156;DHT22;11746;50.876;4.246;2022-08-01T04:41:45;19.70;99.90
23156;DHT22;11746;50.876;4.246;2022-08-01T04:44:15;19.70;99.90
23156;DHT22;11746;50.876;4.246;2022-08-01T04:46:42;19.60;99.90
23156;DHT22;11746;50.876;4.246;2022-08-01T04:49:10;19.70;99.90
23156;DHT22;11746;50.876;4.246;2022-08-01T04:51:37;19.70;99.90
23156;DHT22;11746;50.876;4.246;2022-08-01T04:54:18;19.70;99.90
23156;DHT22;11746;50.876;4.246;2022-08-01T04:56:49;19.90;99.90
23156;DHT22;11746;50.876;4.246;2022-08-01T04:59:15;20.00;99.90
23156;DHT22;11746;50.876;4.246;2022-08-01T05:02:02;20.10;99.90
23156;DHT22;11746;50.876;4.246;2022-08-01T05:04:27;20.10;99.90
23156;DHT22;11746;50.876;4.246;2022-08-01T05:06:53;20.10;99.90
23156;DHT22;11746;50.876;4.246;2022-08-01T05:09:19;20.10;99.90
23156;DHT22;11746;50.876;4.246;2022-08-01T05:11:45;19.90;99.90
23156;DHT22;11746;50.876;4.246;2022-08-01T05:14:13;19.90;99.90
23156;DHT22;11746;50.876;4.246;2022-08-01T05:16:45;19.90;99.90
23156;DHT22;11746;50.876;4.246;2022-08-01T05:19:11;19.80;99.90
23156;DHT22;11746;50.876;4.246;2022-08-01T05:21:37;19.80;99.90
23156;DHT22;11746;50.876;4.246;2022-08-01T05:24:06;19.90;99.90
23156;DHT22;11746;50.876;4.246;2022-08-01T05:26:35;19.80;99.90
23156;DHT22;11746;50.876;4.246;2022-08-01T05:29:01;19.70;99.90
23156;DHT22;11746;50.876;4.246;2022-08-01T05:31:27;19.60;99.90
23156;DHT22;11746;50.876;4.246;2022-08-01T05:33:56;19.50;99.90
23156;DHT22;11746;50.876;4.246;2022-08-01T05:36:24;19.60;99.90
23156;DHT22;11746;50.876;4.246;2022-08-01T05:38:50;19.60;99.90
23156;DHT22;11746;50.876;4.246;2022-08-01T05:41:15;19.70;99.90
23156;DHT22;11746;50.876;4.246;2022-08-01T05:43:44;19.70;99.90
23156;DHT22;11746;50.876;4.246;2022-08-01T05:46:11;19.80;99.90
23156;DHT22;11746;50.876;4.246;2022-08-01T05:48:38;19.80;99.90
23156;DHT22;11746;50.876;4.246;2022-08-01T05:51:05;19.90;99.90
23156;DHT22;11746;50.876;4.246;2022-08-01T05:53:34;19.90;99.90
23156;DHT22;11746;50.876;4.246;2022-08-01T05:56:01;20.00;99.90
23156;DHT22;11746;50.876;4.246;2022-08-01T05:58:30;20.20;99.90
23156;DHT22;11746;50.876;4.246;2022-08-01T06:00:59;20.30;99.90
23156;DHT22;11746;50.876;4.246;2022-08-01T06:03:25;20.30;99.90
23156;DHT22;11746;50.876;4.246;2022-08-01T06:05:51;20.20;99.90
23156;DHT22;11746;50.876;4.246;2022-08-01T06:08:20;20.10;99.90
23156;DHT22;11746;50.876;4.246;2022-08-01T06:10:46;20.20;99.90
23156;DHT22;11746;50.876;4.246;2022-08-01T06:13:14;20.10;99.90
23156;DHT22;11746;50.876;4.246;2022-08-01T06:15:44;20.20;99.90
23156;DHT22;11746;50.876;4.246;2022-08-01T06:18:10;20.20;99.90
23156;DHT22;11746;50.876;4.246;2022-08-01T06:20:35;20.30;99.90
23156;DHT22;11746;50.876;4.246;2022-08-01T06:23:03;20.40;99.90
23156;DHT22;11746;50.876;4.246;2022-08-01T06:25:32;20.40;99.90
23156;DHT22;11746;50.876;4.246;2022-08-01T06:28:02;20.60;99.90
23156;DHT22;11746;50.876;4.246;2022-08-01T06:30:29;20.50;99.90
23156;DHT22;11746;50.876;4.246;2022-08-01T06:32:59;20.40;99.90
23156;DHT22;11746;50.876;4.246;2022-08-01T06:35:26;20.50;99.90
23156;DHT22;11746;50.876;4.246;2022-08-01T06:37:52;20.60;99.90
23156;DHT22;11746;50.876;4.246;2022-08-01T06:40:22;20.50;99.90
23156;DHT22;11746;50.876;4.246;2022-08-01T06:42:49;20.70;99.90
23156;DHT22;11746;50.876;4.246;2022-08-01T06:45:15;20.60;99.90
23156;DHT22;11746;50.876;4.246;2022-08-01T06:47:44;20.40;99.90
23156;DHT22;11746;50.876;4.246;2022-08-01T06:50:11;20.40;99.90
23156;DHT22;11746;50.876;4.246;2022-08-01T06:52:37;20.40;99.90
23156;DHT22;11746;50.876;4.246;2022-08-01T06:55:05;20.50;99.90
23156;DHT22;11746;50.876;4.246;2022-08-01T06:57:33;20.60;99.90
23156;DHT22;11746;50.876;4.246;2022-08-01T07:00:06;20.50;99.90
23156;DHT22;11746;50.876;4.246;2022-08-01T07:02:35;20.50;99.90
23156;DHT22;11746;50.876;4.246;2022-08-01T07:05:08;20.60;99.90
23156;DHT22;11746;50.876;4.246;2022-08-01T07:07:34;20.70;99.90
23156;DHT22;11746;50.876;4.246;2022-08-01T07:10:00;20.80;99.90
23156;DHT22;11746;50.876;4.246;2022-08-01T07:12:26;20.90;99.90
23156;DHT22;11746;50.876;4.246;2022-08-01T07:14:54;20.90;99.90
23156;DHT22;11746;50.876;4.246;2022-08-01T07:17:22;20.80;99.90
23156;DHT22;11746;50.876;4.246;2022-08-01T07:19:47;20.80;99.90
23156;DHT22;11746;50.876;4.246;2022-08-01T07:22:13;20.90;99.90
23156;DHT22;11746;50.876;4.246;2022-08-01T07:24:42;21.00;99.90
23156;DHT22;11746;50.876;4.246;2022-08-01T07:27:08;21.00;99.90
23156;DHT22;11746;50.876;4.246;2022-08-01T07:29:36;21.00;99.90
23156;DHT22;11746;50.876;4.246;2022-08-01T07:32:02;20.90;99.90
23156;DHT22;11746;50.876;4.246;2022-08-01T07:34:31;20.90;99.90
23156;DHT22;11746;50.876;4.246;2022-08-01T07:36:57;20.90;99.90
23156;DHT22;11746;50.876;4.246;2022-08-01T07:39:25;21.00;99.90
23156;DHT22;11746;50.876;4.246;2022-08-01T07:41:53;21.00;99.90
23156;DHT22;11746;50.876;4.246;2022-08-01T07:44:21;21.00;99.90
23156;DHT22;11746;50.876;4.246;2022-08-01T07:46:47;21.10;99.90
23156;DHT22;11746;50.876;4.246;2022-08-01T07:49:13;21.20;99.90
23156;DHT22;11746;50.876;4.246;2022-08-01T07:51:39;21.30;99.90
23156;DHT22;11746;50.876;4.246;2022-08-01T07:54:06;21.40;99.90
23156;DHT22;11746;50.876;4.246;2022-08-01T07:56:33;21.70;99.90
23156;DHT22;11746;50.876;4.246;2022-08-01T07:58:58;21.70;99.90
23156;DHT22;11746;50.876;4.246;2022-08-01T08:01:24;21.80;99.90
23156;DHT22;11746;50.876;4.246;2022-08-01T08:03:50;21.60;99.90
23156;DHT22;11746;50.876;4.246;2022-08-01T08:06:19;21.50;99.90
23156;DHT22;11746;50.876;4.246;2022-08-01T08:08:45;21.60;99.90
23156;DHT22;11746;50.876;4.246;2022-08-01T08:11:10;21.70;99.90
23156;DHT22;11746;50.876;4.246;2022-08-01T08:13:38;21.60;99.90
23156;DHT22;11746;50.876;4.246;2022-08-01T08:16:06;21.70;99.90
23156;DHT22;11746;50.876;4.246;2022-08-01T08:18:33;21.90;99.90
23156;DHT22;11746;50.876;4.246;2022-08-01T08:20:58;22.10;99.90
23156;DHT22;11746;50.876;4.246;2022-08-01T08:23:24;22.00;99.90
23156;DHT22;11746;50.876;4.246;2022-08-01T08:26:08;21.90;99.90
23156;DHT22;11746;50.876;4.246;2022-08-01T08:28:34;21.80;99.90
23156;DHT22;11746;50.876;4.246;2022-08-01T08:30:59;21.80;99.90
23156;DHT22;11746;50.876;4.246;2022-08-01T08:33:25;21.70;99.90
23156;DHT22;11746;50.876;4.246;2022-08-01T08:35:53;22.00;99.90
23156;DHT22;11746;50.876;4.246;2022-08-01T08:38:20;22.20;99.90
23156;DHT22;11746;50.876;4.246;2022-08-01T08:40:48;22.20;99.90
23156;DHT22;11746;50.876;4.246;2022-08-01T08:43:15;22.10;99.90
23156;DHT22;11746;50.876;4.246;2022-08-01T08:45:44;22.20;99.90
23156;DHT22;11746;50.876;4.246;2022-08-01T08:48:12;22.20;99.90
23156;DHT22;11746;50.876;4.246;2022-08-01T08:50:41;22.30;99.90
23156;DHT22;11746;50.876;4.246;2022-08-01T08:53:09;22.30;99.90
23156;DHT22;11746;50.876;4.246;2022-08-01T08:55:35;22.30;99.90
23156;DHT22;11746;50.876;4.246;2022-08-01T08:58:04;22.20;99.90
23156;DHT22;11746;50.876;4.246;2022-08-01T09:00:32;21.90;99.90
23156;DHT22;11746;50.876;4.246;2022-08-01T09:03:00;22.00;99.90
23156;DHT22;11746;50.876;4.246;2022-08-01T09:05:29;21.90;99.90
23156;DHT22;11746;50.876;4.246;2022-08-01T09:08:02;22.00;99.90
23156;DHT22;11746;50.876;4.246;2022-08-01T09:10:33;22.20;99.90
23156;DHT22;11746;50.876;4.246;2022-08-01T09:15:46;22.50;99.90
23156;DHT22;11746;50.876;4.246;2022-08-01T09:18:32;22.80;99.90
23156;DHT22;11746;50.876;4.246;2022-08-01T09:21:07;22.80;99.90
23156;DHT22;11746;50.876;4.246;2022-08-01T09:23:36;23.00;99.90
23156;DHT22;11746;50.876;4.246;2022-08-01T09:26:05;23.10;99.90
23156;DHT22;11746;50.876;4.246;2022-08-01T09:28:34;22.90;99.90
23156;DHT22;11746;50.876;4.246;2022-08-01T09:31:14;22.70;99.90
23156;DHT22;11746;50.876;4.246;2022-08-01T09:36:14;22.70;99.90
23156;DHT22;11746;50.876;4.246;2022-08-01T09:38:40;22.70;99.90
23156;DHT22;11746;50.876;4.246;2022-08-01T09:41:07;22.70;99.90
23156;DHT22;11746;50.876;4.246;2022-08-01T09:43:33;23.00;99.90
23156;DHT22;11746;50.876;4.246;2022-08-01T09:46:04;23.20;99.90
23156;DHT22;11746;50.876;4.246;2022-08-01T09:48:32;23.30;99.90
23156;DHT22;11746;50.876;4.246;2022-08-01T09:50:59;23.40;99.90
23156;DHT22;11746;50.876;4.246;2022-08-01T09:53:40;23.30;99.90
23156;DHT22;11746;50.876;4.246;2022-08-01T09:56:12;23.50;99.90
23156;DHT22;11746;50.876;4.246;2022-08-01T09:58:58;23.80;99.90
23156;DHT22;11746;50.876;4.246;2022-08-01T10:01:27;24.00;99.90
23156;DHT22;11746;50.876;4.246;2022-08-01T10:04:11;24.10;99.90
23156;DHT22;11746;50.876;4.246;2022-08-01T10:06:44;24.10;99.90
23156;DHT22;11746;50.876;4.246;2022-08-01T10:09:12;24.20;99.90
23156;DHT22;11746;50.876;4.246;2022-08-01T10:11:42;24.40;99.90
23156;DHT22;11746;50.876;4.246;2022-08-01T10:14:10;24.50;99.90
23156;DHT22;11746;50.876;4.246;2022-08-01T10:16:39;24.70;99.90
23156;DHT22;11746;50.876;4.246;2022-08-01T10:19:06;25.10;99.90
23156;DHT22;11746;50.876;4.246;2022-08-01T10:21:33;25.20;99.90
23156;DHT22;11746;50.876;4.246;2022-08-01T10:24:02;25.30;99.90
23156;DHT22;11746;50.876;4.246;2022-08-01T10:26:33;25.60;99.90
23156;DHT22;11746;50.876;4.246;2022-08-01T10:29:02;25.20;99.90
23156;DHT22;11746;50.876;4.246;2022-08-01T10:31:29;25.10;99.90
23156;DHT22;11746;50.876;4.246;2022-08-01T10:33:58;24.80;99.90
23156;DHT22;11746;50.876;4.246;2022-08-01T10:36:27;24.40;99.90
23156;DHT22;11746;50.876;4.246;2022-08-01T10:38:56;24.30;99.90
23156;DHT22;11746;50.876;4.246;2022-08-01T10:41:24;24.10;99.90
23156;DHT22;11746;50.876;4.246;2022-08-01T10:43:50;24.20;99.90
23156;DHT22;11746;50.876;4.246;2022-08-01T10:46:19;24.40;99.90
23156;DHT22;11746;50.876;4.246;2022-08-01T10:48:58;24.70;99.90
23156;DHT22;11746;50.876;4.246;2022-08-01T10:51:29;24.70;99.90
23156;DHT22;11746;50.876;4.246;2022-08-01T10:53:55;24.70;99.90
23156;DHT22;11746;50.876;4.246;2022-08-01T10:56:44;24.70;99.90
23156;DHT22;11746;50.876;4.246;2022-08-01T10:59:24;24.60;99.90
23156;DHT22;11746;50.876;4.246;2022-08-01T11:02:05;24.30;99.90
23156;DHT22;11746;50.876;4.246;2022-08-01T11:07:20;24.30;99.90
23156;DHT22;11746;50.876;4.246;2022-08-01T11:09:58;24.60;99.90
23156;DHT22;11746;50.876;4.246;2022-08-01T11:12:39;24.80;99.90
23156;DHT22;11746;50.876;4.246;2022-08-01T11:17:34;25.00;99.90
23156;DHT22;11746;50.876;4.246;2022-08-01T11:28:24;25.40;99.90
23156;DHT22;11746;50.876;4.246;2022-08-01T11:31:25;25.40;99.90
23156;DHT22;11746;50.876;4.246;2022-08-01T11:38:42;25.40;99.90
23156;DHT22;11746;50.876;4.246;2022-08-01T11:41:24;25.70;99.90
23156;DHT22;11746;50.876;4.246;2022-08-01T11:46:59;25.90;99.90
23156;DHT22;11746;50.876;4.246;2022-08-01T11:49:42;25.90;99.90
23156;DHT22;11746;50.876;4.246;2022-08-01T11:52:29;26.20;99.90
23156;DHT22;11746;50.876;4.246;2022-08-01T11:55:05;26.20;99.90
23156;DHT22;11746;50.876;4.246;2022-08-01T11:57:33;26.10;99.90
23156;DHT22;11746;50.876;4.246;2022-08-01T12:00:13;26.50;98.90
23156;DHT22;11746;50.876;4.246;2022-08-01T12:02:40;26.60;98.70
23156;DHT22;11746;50.876;4.246;2022-08-01T12:05:08;26.80;99.10
23156;DHT22;11746;50.876;4.246;2022-08-01T12:07:39;27.00;97.80
23156;DHT22;11746;50.876;4.246;2022-08-01T12:10:10;26.80;96.70
23156;DHT22;11746;50.876;4.246;2022-08-01T12:12:41;26.60;97.10
23156;DHT22;11746;50.876;4.246;2022-08-01T12:15:08;26.80;96.80
23156;DHT22;11746;50.876;4.246;2022-08-01T12:17:43;26.80;96.80
23156;DHT22;11746;50.876;4.246;2022-08-01T12:20:11;26.30;97.00
23156;DHT22;11746;50.876;4.246;2022-08-01T12:22:38;26.20;97.30
23156;DHT22;11746;50.876;4.246;2022-08-01T12:25:15;26.10;97.70
23156;DHT22;11746;50.876;4.246;2022-08-01T12:27:42;26.20;97.60
23156;DHT22;11746;50.876;4.246;2022-08-01T12:30:13;26.30;96.70
23156;DHT22;11746;50.876;4.246;2022-08-01T12:32:44;26.50;95.50
23156;DHT22;11746;50.876;4.246;2022-08-01T12:35:15;26.50;95.20
23156;DHT22;11746;50.876;4.246;2022-08-01T12:37:47;26.40;94.90
23156;DHT22;11746;50.876;4.246;2022-08-01T12:42:48;26.40;95.20
23156;DHT22;11746;50.876;4.246;2022-08-01T12:45:25;26.80;95.50
23156;DHT22;11746;50.876;4.246;2022-08-01T12:47:54;27.30;94.60
23156;DHT22;11746;50.876;4.246;2022-08-01T12:50:28;27.70;93.80
23156;DHT22;11746;50.876;4.246;2022-08-01T12:52:56;27.80;94.30
23156;DHT22;11746;50.876;4.246;2022-08-01T12:55:23;28.00;94.60
23156;DHT22;11746;50.876;4.246;2022-08-01T12:58:05;27.70;94.20
23156;DHT22;11746;50.876;4.246;2022-08-01T13:00:32;27.50;94.20
23156;DHT22;11746;50.876;4.246;2022-08-01T13:03:04;27.80;94.40
23156;DHT22;11746;50.876;4.246;2022-08-01T13:08:21;27.90;93.80
23156;DHT22;11746;50.876;4.246;2022-08-01T13:10:47;27.20;94.30
23156;DHT22;11746;50.876;4.246;2022-08-01T13:13:17;26.90;94.70
23156;DHT22;11746;50.876;4.246;2022-08-01T13:15:46;26.80;94.70
23156;DHT22;11746;50.876;4.246;2022-08-01T13:18:34;26.70;93.60
23156;DHT22;11746;50.876;4.246;2022-08-01T13:21:19;26.50;93.60
23156;DHT22;11746;50.876;4.246;2022-08-01T13:24:12;26.40;94.50
23156;DHT22;11746;50.876;4.246;2022-08-01T13:26:55;26.20;94.20
23156;DHT22;11746;50.876;4.246;2022-08-01T13:29:37;26.00;93.70
23156;DHT22;11746;50.876;4.246;2022-08-01T13:32:19;26.00;93.50
23156;DHT22;11746;50.876;4.246;2022-08-01T13:34:47;26.00;94.00
23156;DHT22;11746;50.876;4.246;2022-08-01T13:37:24;26.20;94.00
23156;DHT22;11746;50.876;4.246;2022-08-01T13:39:50;26.40;93.70
23156;DHT22;11746;50.876;4.246;2022-08-01T13:42:16;26.80;94.10
23156;DHT22;11746;50.876;4.246;2022-08-01T13:44:46;27.10;93.30
23156;DHT22;11746;50.876;4.246;2022-08-01T13:47:12;27.00;92.60
23156;DHT22;11746;50.876;4.246;2022-08-01T13:49:41;27.20;91.70
23156;DHT22;11746;50.876;4.246;2022-08-01T13:52:10;27.50;91.40
23156;DHT22;11746;50.876;4.246;2022-08-01T13:54:36;27.50;91.40
23156;DHT22;11746;50.876;4.246;2022-08-01T13:57:02;27.80;91.00
23156;DHT22;11746;50.876;4.246;2022-08-01T13:59:31;28.10;90.60
23156;DHT22;11746;50.876;4.246;2022-08-01T14:01:56;28.30;90.80
23156;DHT22;11746;50.876;4.246;2022-08-01T14:04:25;27.90;90.40
23156;DHT22;11746;50.876;4.246;2022-08-01T14:06:51;27.60;90.80
23156;DHT22;11746;50.876;4.246;2022-08-01T14:09:17;27.60;91.40
23156;DHT22;11746;50.876;4.246;2022-08-01T14:11:45;27.50;90.70
23156;DHT22;11746;50.876;4.246;2022-08-01T14:14:11;27.50;90.60
23156;DHT22;11746;50.876;4.246;2022-08-01T14:16:36;28.00;89.90
23156;DHT22;11746;50.876;4.246;2022-08-01T14:19:03;27.90;89.80
23156;DHT22;11746;50.876;4.246;2022-08-01T14:21:31;27.70;90.00
23156;DHT22;11746;50.876;4.246;2022-08-01T14:23:57;27.90;90.00
23156;DHT22;11746;50.876;4.246;2022-08-01T14:26:23;28.00;88.10
23156;DHT22;11746;50.876;4.246;2022-08-01T14:28:48;27.90;87.50
23156;DHT22;11746;50.876;4.246;2022-08-01T14:31:14;27.70;89.40
23156;DHT22;11746;50.876;4.246;2022-08-01T14:33:43;28.10;89.20
23156;DHT22;11746;50.876;4.246;2022-08-01T14:36:08;28.30;87.40
23156;DHT22;11746;50.876;4.246;2022-08-01T14:38:35;28.90;87.00
23156;DHT22;11746;50.876;4.246;2022-08-01T14:41:01;29.20;86.30
23156;DHT22;11746;50.876;4.246;2022-08-01T14:43:28;29.20;84.00
23156;DHT22;11746;50.876;4.246;2022-08-01T14:45:54;28.50;84.90
23156;DHT22;11746;50.876;4.246;2022-08-01T14:48:20;28.30;85.30
23156;DHT22;11746;50.876;4.246;2022-08-01T14:50:46;28.20;85.00
23156;DHT22;11746;50.876;4.246;2022-08-01T14:53:14;28.20;84.20
23156;DHT22;11746;50.876;4.246;2022-08-01T14:55:42;28.40;83.60
23156;DHT22;11746;50.876;4.246;2022-08-01T14:58:10;28.70;83.30
23156;DHT22;11746;50.876;4.246;2022-08-01T15:00:38;28.60;82.40
23156;DHT22;11746;50.876;4.246;2022-08-01T15:03:08;28.80;82.70
23156;DHT22;11746;50.876;4.246;2022-08-01T15:05:36;29.10;82.10
23156;DHT22;11746;50.876;4.246;2022-08-01T15:08:06;29.50;79.90
23156;DHT22;11746;50.876;4.246;2022-08-01T15:10:32;29.50;79.50
23156;DHT22;11746;50.876;4.246;2022-08-01T15:12:58;30.10;79.60
23156;DHT22;11746;50.876;4.246;2022-08-01T15:15:26;29.80;78.10
23156;DHT22;11746;50.876;4.246;2022-08-01T15:17:52;30.30;77.60
23156;DHT22;11746;50.876;4.246;2022-08-01T15:20:18;30.50;77.00
23156;DHT22;11746;50.876;4.246;2022-08-01T15:22:44;30.00;76.90
23156;DHT22;11746;50.876;4.246;2022-08-01T15:25:10;29.00;78.20
23156;DHT22;11746;50.876;4.246;2022-08-01T15:27:36;28.30;79.10
23156;DHT22;11746;50.876;4.246;2022-08-01T15:30:03;28.30;80.20
23156;DHT22;11746;50.876;4.246;2022-08-01T15:32:33;29.00;79.90
23156;DHT22;11746;50.876;4.246;2022-08-01T15:35:01;29.50;78.50
23156;DHT22;11746;50.876;4.246;2022-08-01T15:37:29;30.00;76.70
23156;DHT22;11746;50.876;4.246;2022-08-01T15:39:57;30.30;76.20
23156;DHT22;11746;50.876;4.246;2022-08-01T15:42:23;29.60;77.20
23156;DHT22;11746;50.876;4.246;2022-08-01T15:44:49;29.40;77.30
23156;DHT22;11746;50.876;4.246;2022-08-01T15:47:14;29.50;76.80
23156;DHT22;11746;50.876;4.246;2022-08-01T15:49:43;29.90;76.50
23156;DHT22;11746;50.876;4.246;2022-08-01T15:52:09;29.50;75.80
23156;DHT22;11746;50.876;4.246;2022-08-01T15:54:37;29.00;75.90
23156;DHT22;11746;50.876;4.246;2022-08-01T15:57:05;29.00;75.90
23156;DHT22;11746;50.876;4.246;2022-08-01T15:59:31;28.80;76.70
23156;DHT22;11746;50.876;4.246;2022-08-01T16:01:57;28.30;76.50
23156;DHT22;11746;50.876;4.246;2022-08-01T16:04:24;27.80;77.00
23156;DHT22;11746;50.876;4.246;2022-08-01T16:06:54;27.70;79.30
23156;DHT22;11746;50.876;4.246;2022-08-01T16:09:20;27.80;79.20
23156;DHT22;11746;50.876;4.246;2022-08-01T16:11:45;28.60;78.10
23156;DHT22;11746;50.876;4.246;2022-08-01T16:14:13;29.70;75.10
23156;DHT22;11746;50.876;4.246;2022-08-01T16:16:39;30.40;72.80
23156;DHT22;11746;50.876;4.246;2022-08-01T16:19:07;31.00;72.60
23156;DHT22;11746;50.876;4.246;2022-08-01T16:21:35;31.20;71.60
23156;DHT22;11746;50.876;4.246;2022-08-01T16:24:04;31.60;69.80
23156;DHT22;11746;50.876;4.246;2022-08-01T16:26:29;32.10;69.00
23156;DHT22;11746;50.876;4.246;2022-08-01T16:28:58;32.20;68.10